sensor_id;sensor_type;location;lat;lon;timestamp;pressure;altitude;pressure_sealevel;temperature;humidity
63500;BME280;49654;51.142;14.924;2023-02-12T00:00:18;100790.28;;;7.20;85.09
63500;BME280;49654;51.142;14.924;2023-02-12T00:02:47;100688.31;;;6.67;84.22
63500;BME280;49654;51.142;14.924;2023-02-12T00:05:14;100803.63;;;7.38;83.72
63500;BME280;49654;51.142;14.924;2023-02-12T00:07:41;100798.13;;;7.19;84.22
63500;BME280;49654;51.142;14.924;2023-02-12T00:10:09;100804.47;;;7.15;84.87
63500;BME280;49654;51.142;14.924;2023-02-12T00:12:36;100809.75;;;7.13;85.02
63500;BME280;49654;51.142;14.924;2023-02-12T00:15:03;100769.03;;;6.82;84.99
63500;BME280;49654;51.142;14.924;2023-02-12T00:17:30;100675.50;;;6.30;85.24
63500;BME280;49654;51.142;14.924;2023-02-12T00:19:59;100760.13;;;6.86;84.83
63500;BME280;49654;51.142;14.924;2023-02-12T00:22:26;100810.72;;;7.23;84.67
63500;BME280;49654;51.142;14.924;2023-02-12T00:24:54;100808.03;;;7.25;84.81
63500;BME280;49654;51.142;14.924;2023-02-12T00:27:21;100695.53;;;6.50;84.66
63500;BME280;49654;51.142;14.924;2023-02-12T00:29:48;100814.97;;;7.24;84.75
63500;BME280;49654;51.142;14.924;2023-02-12T00:32:15;100819.97;;;7.15;84.90
63500;BME280;49654;51.142;14.924;2023-02-12T00:34:44;100808.13;;;7.23;84.99
63500;BME280;49654;51.142;14.924;2023-02-12T00:37:13;100822.25;;;7.31;84.32
63500;BME280;49654;51.142;14.924;2023-02-12T00:39:40;100814.47;;;7.19;84.48
63500;BME280;49654;51.142;14.924;2023-02-12T00:42:07;100825.19;;;7.26;84.82
63500;BME280;49654;51.142;14.924;2023-02-12T00:44:34;100825.31;;;7.24;85.16
63500;BME280;49654;51.142;14.924;2023-02-12T00:47:02;100830.84;;;7.31;84.53
63500;BME280;49654;51.142;14.924;2023-02-12T00:49:29;100777.53;;;6.95;84.16
63500;BME280;49654;51.142;14.924;2023-02-12T00:51:59;100798.63;;;6.89;85.55
63500;BME280;49654;51.142;14.924;2023-02-12T00:54:27;100711.47;;;6.44;84.97
63500;BME280;49654;51.142;14.924;2023-02-12T00:56:54;100810.22;;;7.07;84.88
63500;BME280;49654;51.142;14.924;2023-02-12T00:59:22;100834.03;;;7.35;84.77
63500;BME280;49654;51.142;14.924;2023-02-12T01:01:49;100712.63;;;6.64;83.73
63500;BME280;49654;51.142;14.924;2023-02-12T01:04:17;100827.56;;;7.29;84.32
63500;BME280;49654;51.142;14.924;2023-02-12T01:06:43;100831.97;;;7.16;84.91
63500;BME280;49654;51.142;14.924;2023-02-12T01:09:11;100806.22;;;7.03;84.77
63500;BME280;49654;51.142;14.924;2023-02-12T01:11:39;100843.06;;;7.29;84.38
63500;BME280;49654;51.142;14.924;2023-02-12T01:14:07;100841.31;;;7.30;84.23
63500;BME280;49654;51.142;14.924;2023-02-12T01:16:34;100850.34;;;7.35;83.92
63500;BME280;49654;51.142;14.924;2023-02-12T01:19:03;100849.75;;;7.32;83.98
63500;BME280;49654;51.142;14.924;2023-02-12T01:21:32;100845.88;;;7.26;84.52
63500;BME280;49654;51.142;14.924;2023-02-12T01:24:01;100791.38;;;6.94;84.41
63500;BME280;49654;51.142;14.924;2023-02-12T01:26:30;100844.81;;;7.28;84.59
63500;BME280;49654;51.142;14.924;2023-02-12T01:29:04;100821.91;;;7.24;84.02
63500;BME280;49654;51.142;14.924;2023-02-12T01:31:34;100861.44;;;7.48;83.99
63500;BME280;49654;51.142;14.924;2023-02-12T01:34:02;100771.63;;;6.93;83.90
63500;BME280;49654;51.142;14.924;2023-02-12T01:36:29;100856.34;;;7.36;84.02
63500;BME280;49654;51.142;14.924;2023-02-12T01:38:57;100811.97;;;7.07;84.10
63500;BME280;49654;51.142;14.924;2023-02-12T01:41:26;100788.88;;;6.81;84.30
63500;BME280;49654;51.142;14.924;2023-02-12T01:44:10;100817.72;;;7.10;83.99
63500;BME280;49654;51.142;14.924;2023-02-12T01:46:38;100850.53;;;7.21;84.25
63500;BME280;49654;51.142;14.924;2023-02-12T01:49:09;100826.50;;;7.32;83.71
63500;BME280;49654;51.142;14.924;2023-02-12T01:51:38;100696.09;;;6.43;83.60
63500;BME280;49654;51.142;14.924;2023-02-12T01:54:07;100789.44;;;6.85;84.72
63500;BME280;49654;51.142;14.924;2023-02-12T01:56:36;100852.47;;;7.30;84.79
63500;BME280;49654;51.142;14.924;2023-02-12T01:59:03;100836.81;;;7.32;84.45
63500;BME280;49654;51.142;14.924;2023-02-12T02:01:32;100823.56;;;7.25;83.58
63500;BME280;49654;51.142;14.924;2023-02-12T02:04:01;100804.78;;;6.99;84.02
63500;BME280;49654;51.142;14.924;2023-02-12T02:06:31;100861.84;;;7.31;84.53
63500;BME280;49654;51.142;14.924;2023-02-12T02:09:00;100862.78;;;7.30;84.75
63500;BME280;49654;51.142;14.924;2023-02-12T02:11:27;100822.63;;;7.02;84.43
63500;BME280;49654;51.142;14.924;2023-02-12T02:14:12;100862.66;;;7.32;84.81
63500;BME280;49654;51.142;14.924;2023-02-12T02:17:07;100853.56;;;7.15;85.05
63500;BME280;49654;51.142;14.924;2023-02-12T02:19:49;100875.16;;;7.38;85.04
63500;BME280;49654;51.142;14.924;2023-02-12T02:22:28;100866.69;;;7.36;84.42
63500;BME280;49654;51.142;14.924;2023-02-12T02:25:34;100879.34;;;7.27;84.94
63500;BME280;49654;51.142;14.924;2023-02-12T02:28:27;100806.16;;;6.92;85.42
63500;BME280;49654;51.142;14.924;2023-02-12T02:31:03;100878.97;;;7.21;84.96
63500;BME280;49654;51.142;14.924;2023-02-12T02:33:39;100868.31;;;7.25;85.52
63500;BME280;49654;51.142;14.924;2023-02-12T02:36:14;100873.06;;;7.43;85.16
63500;BME280;49654;51.142;14.924;2023-02-12T02:38:50;100766.19;;;6.85;83.84
63500;BME280;49654;51.142;14.924;2023-02-12T02:41:27;100720.47;;;6.63;83.55
63500;BME280;49654;51.142;14.924;2023-02-12T02:43:55;100841.81;;;7.46;83.33
63500;BME280;49654;51.142;14.924;2023-02-12T02:46:29;100852.59;;;7.40;83.34
63500;BME280;49654;51.142;14.924;2023-02-12T02:48:59;100876.50;;;7.55;83.11
63500;BME280;49654;51.142;14.924;2023-02-12T02:51:30;100884.63;;;7.50;83.60
63500;BME280;49654;51.142;14.924;2023-02-12T02:54:03;100874.28;;;7.50;83.79
63500;BME280;49654;51.142;14.924;2023-02-12T02:56:34;100881.78;;;7.53;83.89
63500;BME280;49654;51.142;14.924;2023-02-12T02:59:05;100822.56;;;7.15;83.38
63500;BME280;49654;51.142;14.924;2023-02-12T03:01:38;100829.22;;;7.06;84.17
63500;BME280;49654;51.142;14.924;2023-02-12T03:04:08;100886.09;;;7.41;84.66
63500;BME280;49654;51.142;14.924;2023-02-12T03:06:40;100888.84;;;7.51;84.23
63500;BME280;49654;51.142;14.924;2023-02-12T03:09:14;100888.63;;;7.54;84.26
63500;BME280;49654;51.142;14.924;2023-02-12T03:11:43;100845.03;;;7.25;83.84
63500;BME280;49654;51.142;14.924;2023-02-12T03:14:14;100912.47;;;7.58;83.81
63500;BME280;49654;51.142;14.924;2023-02-12T03:16:48;100908.72;;;7.62;83.22
63500;BME280;49654;51.142;14.924;2023-02-12T03:19:19;100893.47;;;7.35;83.79
63500;BME280;49654;51.142;14.924;2023-02-12T03:21:51;100921.56;;;7.39;84.32
63500;BME280;49654;51.142;14.924;2023-02-12T03:24:25;100906.44;;;7.46;84.45
63500;BME280;49654;51.142;14.924;2023-02-12T03:26:58;100917.22;;;7.40;84.70
63500;BME280;49654;51.142;14.924;2023-02-12T03:29:28;100919.81;;;7.40;84.69
63500;BME280;49654;51.142;14.924;2023-02-12T03:32:08;100927.00;;;7.47;84.91
63500;BME280;49654;51.142;14.924;2023-02-12T03:34:44;100923.66;;;7.58;84.43
63500;BME280;49654;51.142;14.924;2023-02-12T03:37:17;100931.69;;;7.42;84.63
63500;BME280;49654;51.142;14.924;2023-02-12T03:39:51;100898.50;;;7.25;84.80
63500;BME280;49654;51.142;14.924;2023-02-12T03:42:26;100936.94;;;7.65;84.29
63500;BME280;49654;51.142;14.924;2023-02-12T03:45:02;100942.84;;;7.67;83.78
63500;BME280;49654;51.142;14.924;2023-02-12T03:47:38;100945.38;;;7.56;83.90
63500;BME280;49654;51.142;14.924;2023-02-12T03:50:11;100939.00;;;7.48;84.60
63500;BME280;49654;51.142;14.924;2023-02-12T03:52:41;100956.81;;;7.64;84.12
63500;BME280;49654;51.142;14.924;2023-02-12T03:55:09;100914.28;;;7.33;84.33
63500;BME280;49654;51.142;14.924;2023-02-12T03:57:40;100840.66;;;6.91;83.82
63500;BME280;49654;51.142;14.924;2023-02-12T04:00:11;100955.50;;;7.59;83.63
63500;BME280;49654;51.142;14.924;2023-02-12T04:02:40;100935.84;;;7.56;83.58
63500;BME280;49654;51.142;14.924;2023-02-12T04:05:16;100965.28;;;7.66;83.79
63500;BME280;49654;51.142;14.924;2023-02-12T04:07:43;100960.69;;;7.70;83.41
63500;BME280;49654;51.142;14.924;2023-02-12T04:10:10;100962.94;;;7.63;84.12
63500;BME280;49654;51.142;14.924;2023-02-12T04:12:39;100971.84;;;7.59;84.08
63500;BME280;49654;51.142;14.924;2023-02-12T04:15:24;100960.94;;;7.43;84.89
63500;BME280;49654;51.142;14.924;2023-02-12T04:18:05;100944.19;;;7.24;84.71
63500;BME280;49654;51.142;14.924;2023-02-12T04:20:41;100971.34;;;7.54;84.62
63500;BME280;49654;51.142;14.924;2023-02-12T04:23:19;100978.16;;;7.55;84.38
63500;BME280;49654;51.142;14.924;2023-02-12T04:25:52;100980.53;;;7.58;84.15
63500;BME280;49654;51.142;14.924;2023-02-12T04:28:27;100991.25;;;7.65;84.61
63500;BME280;49654;51.142;14.924;2023-02-12T04:31:00;100991.91;;;7.56;84.38
63500;BME280;49654;51.142;14.924;2023-02-12T04:33:34;100997.91;;;7.56;84.41
63500;BME280;49654;51.142;14.924;2023-02-12T04:36:07;101000.63;;;7.55;84.16
63500;BME280;49654;51.142;14.924;2023-02-12T04:38:41;100987.78;;;7.53;83.92
63500;BME280;49654;51.142;14.924;2023-02-12T04:41:09;101001.75;;;7.26;84.91
63500;BME280;49654;51.142;14.924;2023-02-12T04:43:37;101001.72;;;7.02;86.83
63500;BME280;49654;51.142;14.924;2023-02-12T04:46:05;100962.53;;;7.09;86.24
63500;BME280;49654;51.142;14.924;2023-02-12T04:48:36;100996.19;;;7.20;85.75
63500;BME280;49654;51.142;14.924;2023-02-12T04:51:08;100993.56;;;6.83;88.78
63500;BME280;49654;51.142;14.924;2023-02-12T04:53:35;100993.25;;;6.88;88.77
63500;BME280;49654;51.142;14.924;2023-02-12T04:56:03;100996.34;;;6.93;88.60
63500;BME280;49654;51.142;14.924;2023-02-12T04:58:30;101012.56;;;6.95;88.63
63500;BME280;49654;51.142;14.924;2023-02-12T05:00:57;100990.88;;;6.72;88.64
63500;BME280;49654;51.142;14.924;2023-02-12T05:03:24;101007.81;;;6.76;89.20
63500;BME280;49654;51.142;14.924;2023-02-12T05:05:52;101005.16;;;6.90;89.55
63500;BME280;49654;51.142;14.924;2023-02-12T05:08:19;101003.88;;;6.96;89.28
63500;BME280;49654;51.142;14.924;2023-02-12T05:10:46;101005.31;;;7.00;88.80
63500;BME280;49654;51.142;14.924;2023-02-12T05:13:13;100982.75;;;6.78;88.96
63500;BME280;49654;51.142;14.924;2023-02-12T05:15:40;101011.09;;;7.03;88.58
63500;BME280;49654;51.142;14.924;2023-02-12T05:18:07;101001.19;;;6.97;88.53
63500;BME280;49654;51.142;14.924;2023-02-12T05:20:34;100976.13;;;6.74;88.49
63500;BME280;49654;51.142;14.924;2023-02-12T05:23:02;101009.47;;;6.90;88.99
63500;BME280;49654;51.142;14.924;2023-02-12T05:25:29;101016.69;;;6.97;88.56
63500;BME280;49654;51.142;14.924;2023-02-12T05:27:56;101022.16;;;7.06;88.06
63500;BME280;49654;51.142;14.924;2023-02-12T05:30:23;101011.19;;;7.02;87.96
63500;BME280;49654;51.142;14.924;2023-02-12T05:32:50;101007.00;;;6.88;87.86
63500;BME280;49654;51.142;14.924;2023-02-12T05:35:17;101031.59;;;6.94;88.35
63500;BME280;49654;51.142;14.924;2023-02-12T05:37:44;101010.50;;;6.87;88.38
63500;BME280;49654;51.142;14.924;2023-02-12T05:40:13;101002.78;;;6.74;88.16
63500;BME280;49654;51.142;14.924;2023-02-12T05:42:40;101023.94;;;6.92;88.96
63500;BME280;49654;51.142;14.924;2023-02-12T05:45:07;101043.34;;;6.98;88.37
63500;BME280;49654;51.142;14.924;2023-02-12T05:47:34;101032.63;;;6.91;88.22
63500;BME280;49654;51.142;14.924;2023-02-12T05:50:02;101033.44;;;6.92;88.79
63500;BME280;49654;51.142;14.924;2023-02-12T05:52:28;101022.06;;;6.94;87.96
63500;BME280;49654;51.142;14.924;2023-02-12T05:54:55;101043.56;;;7.08;86.89
63500;BME280;49654;51.142;14.924;2023-02-12T05:57:24;101054.50;;;7.11;85.99
63500;BME280;49654;51.142;14.924;2023-02-12T05:59:51;101056.66;;;7.05;85.75
63500;BME280;49654;51.142;14.924;2023-02-12T06:02:17;101052.31;;;7.05;85.46
63500;BME280;49654;51.142;14.924;2023-02-12T06:04:44;101009.88;;;6.84;84.52
63500;BME280;49654;51.142;14.924;2023-02-12T06:07:11;101019.00;;;6.64;83.84
63500;BME280;49654;51.142;14.924;2023-02-12T06:09:38;101069.78;;;6.50;84.61
63500;BME280;49654;51.142;14.924;2023-02-12T06:12:05;101056.75;;;6.26;86.01
63500;BME280;49654;51.142;14.924;2023-02-12T06:14:33;101072.03;;;6.30;86.74
63500;BME280;49654;51.142;14.924;2023-02-12T06:17:00;101062.72;;;6.14;87.30
63500;BME280;49654;51.142;14.924;2023-02-12T06:19:27;101080.34;;;6.20;87.75
63500;BME280;49654;51.142;14.924;2023-02-12T06:21:54;101081.84;;;6.37;87.58
63500;BME280;49654;51.142;14.924;2023-02-12T06:24:21;101091.56;;;6.46;86.73
63500;BME280;49654;51.142;14.924;2023-02-12T06:26:49;101084.38;;;6.51;85.73
63500;BME280;49654;51.142;14.924;2023-02-12T06:29:16;101102.00;;;6.58;85.45
63500;BME280;49654;51.142;14.924;2023-02-12T06:31:44;101093.56;;;6.56;85.22
63500;BME280;49654;51.142;14.924;2023-02-12T06:34:12;101103.03;;;6.55;84.92
63500;BME280;49654;51.142;14.924;2023-02-12T06:36:42;101094.75;;;6.37;85.21
63500;BME280;49654;51.142;14.924;2023-02-12T06:39:11;101111.81;;;6.52;85.07
63500;BME280;49654;51.142;14.924;2023-02-12T06:41:38;101118.84;;;6.63;83.99
63500;BME280;49654;51.142;14.924;2023-02-12T06:44:05;101103.13;;;6.41;84.35
63500;BME280;49654;51.142;14.924;2023-02-12T06:46:33;101113.97;;;6.46;84.68
63500;BME280;49654;51.142;14.924;2023-02-12T06:49:01;101129.41;;;6.60;84.19
63500;BME280;49654;51.142;14.924;2023-02-12T06:51:29;101133.22;;;6.67;83.82
63500;BME280;49654;51.142;14.924;2023-02-12T06:53:57;101123.50;;;6.58;83.74
63500;BME280;49654;51.142;14.924;2023-02-12T06:56:25;101125.22;;;6.45;83.83
63500;BME280;49654;51.142;14.924;2023-02-12T06:58:54;101131.72;;;6.50;84.11
63500;BME280;49654;51.142;14.924;2023-02-12T07:01:23;101144.34;;;6.55;84.41
63500;BME280;49654;51.142;14.924;2023-02-12T07:03:53;101150.34;;;6.56;84.61
63500;BME280;49654;51.142;14.924;2023-02-12T07:06:22;101143.50;;;6.55;84.65
63500;BME280;49654;51.142;14.924;2023-02-12T07:08:49;101137.50;;;6.41;85.22
63500;BME280;49654;51.142;14.924;2023-02-12T07:11:16;101146.69;;;6.45;85.60
63500;BME280;49654;51.142;14.924;2023-02-12T07:13:44;101138.47;;;6.53;85.89
63500;BME280;49654;51.142;14.924;2023-02-12T07:16:13;101137.34;;;6.57;85.80
63500;BME280;49654;51.142;14.924;2023-02-12T07:18:41;101144.28;;;6.69;85.19
63500;BME280;49654;51.142;14.924;2023-02-12T07:21:10;101147.41;;;6.87;84.08
63500;BME280;49654;51.142;14.924;2023-02-12T07:23:39;101147.69;;;6.83;83.52
63500;BME280;49654;51.142;14.924;2023-02-12T07:26:10;101136.13;;;6.75;83.44
63500;BME280;49654;51.142;14.924;2023-02-12T07:28:38;101165.47;;;6.87;83.57
63500;BME280;49654;51.142;14.924;2023-02-12T07:31:06;101133.00;;;6.70;83.87
63500;BME280;49654;51.142;14.924;2023-02-12T07:33:34;101165.03;;;6.81;84.20
63500;BME280;49654;51.142;14.924;2023-02-12T07:36:06;101163.38;;;6.80;84.46
63500;BME280;49654;51.142;14.924;2023-02-12T07:38:33;101132.59;;;6.64;84.61
63500;BME280;49654;51.142;14.924;2023-02-12T07:41:11;101160.00;;;6.92;84.34
63500;BME280;49654;51.142;14.924;2023-02-12T07:43:39;101168.97;;;6.73;84.59
63500;BME280;49654;51.142;14.924;2023-02-12T07:46:09;101166.78;;;6.67;85.35
63500;BME280;49654;51.142;14.924;2023-02-12T07:48:37;101177.97;;;6.41;86.16
63500;BME280;49654;51.142;14.924;2023-02-12T07:51:05;101153.88;;;6.27;86.95
63500;BME280;49654;51.142;14.924;2023-02-12T07:53:33;101185.19;;;6.36;87.66
63500;BME280;49654;51.142;14.924;2023-02-12T07:56:09;101185.84;;;6.52;87.61
63500;BME280;49654;51.142;14.924;2023-02-12T07:58:37;101179.00;;;6.38;86.85
63500;BME280;49654;51.142;14.924;2023-02-12T08:01:12;101190.19;;;6.51;87.26
63500;BME280;49654;51.142;14.924;2023-02-12T08:03:39;101188.50;;;6.50;87.12
63500;BME280;49654;51.142;14.924;2023-02-12T08:06:08;101164.13;;;6.42;86.46
63500;BME280;49654;51.142;14.924;2023-02-12T08:08:35;101175.94;;;6.59;86.42
63500;BME280;49654;51.142;14.924;2023-02-12T08:11:04;101175.50;;;6.39;86.85
63500;BME280;49654;51.142;14.924;2023-02-12T08:13:33;101196.97;;;6.80;87.01
63500;BME280;49654;51.142;14.924;2023-02-12T08:16:00;101191.25;;;6.62;86.92
63500;BME280;49654;51.142;14.924;2023-02-12T08:18:29;101196.25;;;6.77;87.08
63500;BME280;49654;51.142;14.924;2023-02-12T08:21:00;101196.78;;;6.83;86.83
63500;BME280;49654;51.142;14.924;2023-02-12T08:23:27;101129.69;;;6.56;86.58
63500;BME280;49654;51.142;14.924;2023-02-12T08:25:54;101149.81;;;6.63;86.28
63500;BME280;49654;51.142;14.924;2023-02-12T08:28:30;101204.38;;;7.11;86.06
63500;BME280;49654;51.142;14.924;2023-02-12T08:31:02;101206.41;;;7.06;86.08
63500;BME280;49654;51.142;14.924;2023-02-12T08:33:29;101210.13;;;7.02;86.55
63500;BME280;49654;51.142;14.924;2023-02-12T08:36:03;101218.00;;;7.13;86.26
63500;BME280;49654;51.142;14.924;2023-02-12T08:38:32;101218.44;;;7.33;85.46
63500;BME280;49654;51.142;14.924;2023-02-12T08:41:00;101224.75;;;7.54;84.33
63500;BME280;49654;51.142;14.924;2023-02-12T08:43:28;101198.56;;;7.46;84.49
63500;BME280;49654;51.142;14.924;2023-02-12T08:46:01;101218.44;;;7.58;83.82
63500;BME280;49654;51.142;14.924;2023-02-12T08:48:28;101216.66;;;7.59;84.65
63500;BME280;49654;51.142;14.924;2023-02-12T08:50:55;101231.63;;;7.79;83.96
63500;BME280;49654;51.142;14.924;2023-02-12T08:53:23;101226.69;;;7.63;83.34
63500;BME280;49654;51.142;14.924;2023-02-12T08:55:50;101212.84;;;7.51;84.20
63500;BME280;49654;51.142;14.924;2023-02-12T08:58:16;101202.69;;;7.48;84.86
63500;BME280;49654;51.142;14.924;2023-02-12T09:00:43;101215.09;;;7.43;84.50
63500;BME280;49654;51.142;14.924;2023-02-12T09:03:11;101226.06;;;7.72;84.69
63500;BME280;49654;51.142;14.924;2023-02-12T09:05:39;101224.50;;;7.70;84.58
63500;BME280;49654;51.142;14.924;2023-02-12T09:08:06;101228.53;;;7.74;84.53
63500;BME280;49654;51.142;14.924;2023-02-12T09:10:37;101234.13;;;7.81;84.25
63500;BME280;49654;51.142;14.924;2023-02-12T09:13:05;101193.06;;;7.76;84.21
63500;BME280;49654;51.142;14.924;2023-02-12T09:15:35;101252.50;;;8.01;83.23
63500;BME280;49654;51.142;14.924;2023-02-12T09:18:03;101128.66;;;7.35;83.58
63500;BME280;49654;51.142;14.924;2023-02-12T09:20:32;101253.72;;;8.09;82.91
63500;BME280;49654;51.142;14.924;2023-02-12T09:22:59;101194.06;;;7.73;83.06
63500;BME280;49654;51.142;14.924;2023-02-12T09:25:26;101244.38;;;8.19;82.92
63500;BME280;49654;51.142;14.924;2023-02-12T09:27:54;101254.47;;;8.35;82.54
63500;BME280;49654;51.142;14.924;2023-02-12T09:30:21;101231.56;;;8.04;82.78
63500;BME280;49654;51.142;14.924;2023-02-12T09:32:48;101192.56;;;7.58;83.34
63500;BME280;49654;51.142;14.924;2023-02-12T09:35:15;101245.25;;;8.07;82.82
63500;BME280;49654;51.142;14.924;2023-02-12T09:37:44;101254.78;;;8.06;82.56
63500;BME280;49654;51.142;14.924;2023-02-12T09:40:19;101231.91;;;7.87;83.95
63500;BME280;49654;51.142;14.924;2023-02-12T09:43:05;101247.66;;;7.97;83.76
63500;BME280;49654;51.142;14.924;2023-02-12T09:45:37;101263.84;;;8.12;84.23
63500;BME280;49654;51.142;14.924;2023-02-12T09:48:17;101178.19;;;7.67;83.50
63500;BME280;49654;51.142;14.924;2023-02-12T09:50:51;101263.38;;;8.31;83.31
63500;BME280;49654;51.142;14.924;2023-02-12T09:53:22;101267.19;;;8.50;82.79
63500;BME280;49654;51.142;14.924;2023-02-12T09:55:50;101255.00;;;8.64;81.08
63500;BME280;49654;51.142;14.924;2023-02-12T09:58:22;101278.66;;;8.83;80.10
63500;BME280;49654;51.142;14.924;2023-02-12T10:00:51;101270.38;;;8.54;80.63
63500;BME280;49654;51.142;14.924;2023-02-12T10:03:18;101220.63;;;8.38;81.66
63500;BME280;49654;51.142;14.924;2023-02-12T10:05:48;101187.16;;;8.35;80.41
63500;BME280;49654;51.142;14.924;2023-02-12T10:08:37;101264.41;;;8.89;80.58
63500;BME280;49654;51.142;14.924;2023-02-12T10:11:18;101282.16;;;9.06;80.07
63500;BME280;49654;51.142;14.924;2023-02-12T10:13:53;101173.25;;;8.48;78.99
63500;BME280;49654;51.142;14.924;2023-02-12T10:16:36;101244.78;;;8.97;80.67
63500;BME280;49654;51.142;14.924;2023-02-12T10:19:20;101279.38;;;9.32;78.35
63500;BME280;49654;51.142;14.924;2023-02-12T10:21:56;101169.19;;;8.68;77.86
63500;BME280;49654;51.142;14.924;2023-02-12T10:24:38;101267.06;;;9.00;77.96
63500;BME280;49654;51.142;14.924;2023-02-12T10:27:13;101277.84;;;8.94;78.98
63500;BME280;49654;51.142;14.924;2023-02-12T10:29:42;101280.69;;;9.26;80.56
63500;BME280;49654;51.142;14.924;2023-02-12T10:32:16;101218.38;;;9.03;78.28
63500;BME280;49654;51.142;14.924;2023-02-12T10:34:47;101202.75;;;9.05;77.91
63500;BME280;49654;51.142;14.924;2023-02-12T10:37:23;101213.84;;;9.18;77.31
63500;BME280;49654;51.142;14.924;2023-02-12T10:39:55;101253.16;;;9.01;76.52
63500;BME280;49654;51.142;14.924;2023-02-12T10:42:34;101274.69;;;9.25;77.42
63500;BME280;49654;51.142;14.924;2023-02-12T10:45:02;101277.47;;;9.22;78.63
63500;BME280;49654;51.142;14.924;2023-02-12T10:47:29;101261.69;;;8.90;77.36
63500;BME280;49654;51.142;14.924;2023-02-12T10:49:58;101275.91;;;9.09;77.67
63500;BME280;49654;51.142;14.924;2023-02-12T10:52:34;101275.69;;;9.12;77.67
63500;BME280;49654;51.142;14.924;2023-02-12T10:55:22;101276.00;;;9.07;78.05
63500;BME280;49654;51.142;14.924;2023-02-12T10:57:51;101279.97;;;8.89;79.13
63500;BME280;49654;51.142;14.924;2023-02-12T11:00:24;101275.34;;;8.81;79.19
63500;BME280;49654;51.142;14.924;2023-02-12T11:03:08;101267.03;;;8.41;80.69
63500;BME280;49654;51.142;14.924;2023-02-12T11:05:44;101271.25;;;8.90;80.13
63500;BME280;49654;51.142;14.924;2023-02-12T11:08:27;101264.00;;;9.06;79.87
63500;BME280;49654;51.142;14.924;2023-02-12T11:11:02;101259.84;;;8.92;79.84
63500;BME280;49654;51.142;14.924;2023-02-12T11:13:30;101256.88;;;9.32;79.02
63500;BME280;49654;51.142;14.924;2023-02-12T11:15:57;101248.66;;;9.49;77.88
63500;BME280;49654;51.142;14.924;2023-02-12T11:18:27;101269.31;;;9.73;75.54
63500;BME280;49654;51.142;14.924;2023-02-12T11:20:59;101279.06;;;9.47;77.19
63500;BME280;49654;51.142;14.924;2023-02-12T11:23:29;101265.41;;;9.57;76.54
63500;BME280;49654;51.142;14.924;2023-02-12T11:26:00;101227.91;;;9.72;76.92
63500;BME280;49654;51.142;14.924;2023-02-12T11:28:28;101268.13;;;9.66;75.86
63500;BME280;49654;51.142;14.924;2023-02-12T11:30:58;101225.19;;;9.40;75.35
63500;BME280;49654;51.142;14.924;2023-02-12T11:33:31;101265.75;;;9.74;75.63
63500;BME280;49654;51.142;14.924;2023-02-12T11:36:02;101261.88;;;9.46;75.20
63500;BME280;49654;51.142;14.924;2023-02-12T11:38:33;101237.19;;;9.18;76.83
63500;BME280;49654;51.142;14.924;2023-02-12T11:41:20;101235.84;;;9.01;76.44
63500;BME280;49654;51.142;14.924;2023-02-12T11:43:49;101240.34;;;8.75;77.83
63500;BME280;49654;51.142;14.924;2023-02-12T11:46:19;101267.13;;;9.22;78.14
63500;BME280;49654;51.142;14.924;2023-02-12T11:48:48;101273.50;;;9.41;76.38
63500;BME280;49654;51.142;14.924;2023-02-12T11:51:19;101208.91;;;9.26;76.32
63500;BME280;49654;51.142;14.924;2023-02-12T11:53:49;101264.22;;;9.61;76.42
63500;BME280;49654;51.142;14.924;2023-02-12T11:56:18;101238.63;;;9.34;75.25
63500;BME280;49654;51.142;14.924;2023-02-12T11:58:47;101259.16;;;9.48;76.64
63500;BME280;49654;51.142;14.924;2023-02-12T12:01:19;101259.03;;;9.61;75.53
63500;BME280;49654;51.142;14.924;2023-02-12T12:03:54;101222.13;;;9.35;75.69
63500;BME280;49654;51.142;14.924;2023-02-12T12:06:30;101242.06;;;9.79;76.31
63500;BME280;49654;51.142;14.924;2023-02-12T12:09:03;101213.88;;;9.41;73.70
63500;BME280;49654;51.142;14.924;2023-02-12T12:11:39;101251.50;;;9.58;73.95
63500;BME280;49654;51.142;14.924;2023-02-12T12:14:13;101183.31;;;9.33;72.92
63500;BME280;49654;51.142;14.924;2023-02-12T12:16:48;101253.59;;;9.41;74.80
63500;BME280;49654;51.142;14.924;2023-02-12T12:19:42;101217.19;;;9.43;75.40
63500;BME280;49654;51.142;14.924;2023-02-12T12:22:27;101217.09;;;8.98;74.99
63500;BME280;49654;51.142;14.924;2023-02-12T12:25:04;101229.09;;;8.99;75.90
63500;BME280;49654;51.142;14.924;2023-02-12T12:27:41;101251.69;;;9.21;75.84
63500;BME280;49654;51.142;14.924;2023-02-12T12:30:36;101221.09;;;8.91;76.26
63500;BME280;49654;51.142;14.924;2023-02-12T12:33:13;101204.19;;;8.74;76.80
63500;BME280;49654;51.142;14.924;2023-02-12T12:35:46;101243.06;;;9.20;77.30
63500;BME280;49654;51.142;14.924;2023-02-12T12:38:24;101246.34;;;9.11;76.37
63500;BME280;49654;51.142;14.924;2023-02-12T12:41:01;101226.50;;;8.88;78.12
63500;BME280;49654;51.142;14.924;2023-02-12T12:43:38;101238.03;;;8.95;78.20
63500;BME280;49654;51.142;14.924;2023-02-12T12:46:35;101231.91;;;8.85;78.26
63500;BME280;49654;51.142;14.924;2023-02-12T12:49:24;101134.16;;;8.51;76.91
63500;BME280;49654;51.142;14.924;2023-02-12T12:52:05;101225.50;;;9.13;76.82
63500;BME280;49654;51.142;14.924;2023-02-12T12:54:50;101204.41;;;9.17;74.69
63500;BME280;49654;51.142;14.924;2023-02-12T12:57:34;101183.22;;;9.35;74.73
63500;BME280;49654;51.142;14.924;2023-02-12T13:00:14;101105.41;;;8.90;72.96
63500;BME280;49654;51.142;14.924;2023-02-12T13:03:05;101216.47;;;9.52;74.17
63500;BME280;49654;51.142;14.924;2023-02-12T13:05:53;101222.00;;;9.59;75.16
63500;BME280;49654;51.142;14.924;2023-02-12T13:08:37;101161.63;;;9.12;73.22
63500;BME280;49654;51.142;14.924;2023-02-12T13:11:11;101201.66;;;8.96;75.37